Time;durP1;ratioP1;P1;durP2;ratioP2;P2;SDS_P1;SDS_P2;PMS_P1;PMS_P2;Temp;Humidity;BMP_temperature;BMP_pressure;BME280_temperature;BME280_humidity;BME280_pressure;Samples;Min_cycle;Max_cycle;Signal;HPM_P1;HPM_P2
2021/08/13 00:00:53;;;;;;;22.70;14.30;;;21.70;74.70;;;;;;5062862;28;20875;-91
2021/08/13 00:03:20;;;;;;;21.90;14.20;;;21.70;74.80;;;;;;5060009;28;20535;-90
2021/08/13 00:05:46;;;;;;;20.80;13.50;;;21.70;74.60;;;;;;5057471;28;20531;-90
2021/08/13 00:08:12;;;;;;;21.33;13.97;;;21.60;74.10;;;;;;5052126;28;20415;-90
2021/08/13 00:10:38;;;;;;;22.57;14.97;;;21.60;73.70;;;;;;5052379;28;20777;-90
2021/08/13 00:13:04;;;;;;;19.27;13.30;;;21.70;73.60;;;;;;5051853;28;20276;-90
2021/08/13 00:15:30;;;;;;;18.13;12.80;;;21.70;73.30;;;;;;5052096;28;20275;-90
2021/08/13 00:17:56;;;;;;;22.87;12.87;;;21.70;73.00;;;;;;5052513;28;20734;-91
2021/08/13 00:20:22;;;;;;;22.97;13.67;;;21.60;72.70;;;;;;5052548;28;20644;-90
2021/08/13 00:22:51;;;;;;;36.95;17.85;;;21.60;72.50;;;;;;5052038;28;20509;-90
2021/08/13 00:25:18;;;;;;;18.83;13.93;;;21.60;72.50;;;;;;5053393;28;20230;-90
2021/08/13 00:27:44;;;;;;;24.77;15.45;;;21.50;72.40;;;;;;5052191;28;20703;-90
2021/08/13 00:30:10;;;;;;;26.10;16.03;;;21.50;72.40;;;;;;5052482;28;20232;-90
2021/08/13 00:32:36;;;;;;;23.55;15.00;;;21.40;72.30;;;;;;5059218;28;20443;-90
2021/08/13 00:35:03;;;;;;;20.53;15.00;;;21.40;72.40;;;;;;5058324;28;20673;-90
2021/08/13 00:37:28;;;;;;;22.55;15.13;;;21.40;72.20;;;;;;5052907;28;20192;-90
2021/08/13 00:39:54;;;;;;;24.40;14.37;;;21.40;72.20;;;;;;5052167;28;20177;-90
2021/08/13 00:42:20;;;;;;;21.77;13.57;;;21.40;72.20;;;;;;5052328;28;20209;-90
2021/08/13 00:44:45;;;;;;;21.80;14.97;;;21.40;72.10;;;;;;5061924;28;20173;-90
2021/08/13 00:47:11;;;;;;;32.97;16.70;;;21.40;72.00;;;;;;5062386;28;20267;-90
2021/08/13 00:49:37;;;;;;;29.20;15.10;;;21.50;72.00;;;;;;5056464;28;20209;-90
2021/08/13 00:52:03;;;;;;;24.83;13.73;;;21.40;71.80;;;;;;5055789;28;20204;-90
2021/08/13 00:54:29;;;;;;;27.35;13.88;;;21.40;71.80;;;;;;5058427;28;20262;-90
2021/08/13 00:56:55;;;;;;;20.77;13.90;;;21.40;72.30;;;;;;5056066;28;20229;-90
2021/08/13 00:59:22;;;;;;;21.30;14.27;;;21.40;71.40;;;;;;5055661;28;20423;-90
2021/08/13 01:01:47;;;;;;;22.02;13.52;;;21.40;71.40;;;;;;5055191;28;21007;-90
2021/08/13 01:04:13;;;;;;;21.90;13.03;;;21.30;71.40;;;;;;5057075;28;20204;-90
2021/08/13 01:06:39;;;;;;;20.33;12.77;;;21.40;71.40;;;;;;5055472;28;20230;-90
2021/08/13 01:09:05;;;;;;;17.43;11.47;;;21.40;71.10;;;;;;5056148;28;20188;-90
2021/08/13 01:11:46;;;;;;;15.02;10.90;;;21.40;71.10;;;;;;5054949;28;20178;-91
2021/08/13 01:14:21;;;;;;;14.68;10.05;;;21.30;70.80;;;;;;5055954;28;20169;-90
2021/08/13 01:16:51;;;;;;;14.88;10.70;;;21.40;70.40;;;;;;5055375;28;20611;-90
2021/08/13 01:19:35;;;;;;;18.20;11.88;;;21.60;70.10;;;;;;5055543;28;20248;-90
2021/08/13 01:22:09;;;;;;;11.07;9.52;;;21.70;69.30;;;;;;5054712;28;20742;-90
2021/08/13 01:24:41;;;;;;;17.83;10.13;;;21.70;69.00;;;;;;5055166;28;20209;-90
2021/08/13 01:27:20;;;;;;;14.48;9.45;;;21.60;69.00;;;;;;5055359;28;20173;-90
2021/08/13 01:29:55;;;;;;;14.55;10.45;;;21.50;69.00;;;;;;5069257;28;20223;-90
2021/08/13 01:32:26;;;;;;;14.32;9.25;;;21.30;69.10;;;;;;5054969;28;20246;-90
2021/08/13 01:34:58;;;;;;;16.17;10.18;;;21.30;69.40;;;;;;5055016;28;20272;-90
2021/08/13 01:37:24;;;;;;;12.80;9.93;;;21.40;69.40;;;;;;5054817;28;20169;-90
2021/08/13 01:39:52;;;;;;;15.27;9.95;;;21.50;69.10;;;;;;5055244;28;20184;-90
2021/08/13 01:42:19;;;;;;;15.93;10.70;;;21.50;68.80;;;;;;5054001;28;20221;-90
2021/08/13 01:44:45;;;;;;;18.55;11.48;;;21.40;68.70;;;;;;5055244;28;20230;-90
2021/08/13 01:47:10;;;;;;;21.13;10.82;;;21.20;69.00;;;;;;5054695;28;20268;-90
2021/08/13 01:49:37;;;;;;;20.63;12.33;;;21.10;69.40;;;;;;5055136;28;20613;-90
2021/08/13 01:52:04;;;;;;;18.15;12.48;;;21.10;69.80;;;;;;5065548;28;20320;-90
2021/08/13 01:54:31;;;;;;;19.95;11.90;;;21.00;70.10;;;;;;5054826;28;20707;-89
2021/08/13 01:56:57;;;;;;;24.02;13.85;;;20.90;70.40;;;;;;5055464;28;20667;-90
2021/08/13 01:59:23;;;;;;;19.33;12.90;;;20.90;70.50;;;;;;5056398;28;20266;-90
2021/08/13 02:01:49;;;;;;;21.23;12.40;;;20.80;70.50;;;;;;5055981;28;20204;-90
2021/08/13 02:04:20;;;;;;;28.40;13.65;;;20.80;70.50;;;;;;5054656;28;20411;-90
2021/08/13 02:06:49;;;;;;;24.88;14.38;;;20.80;70.60;;;;;;5054599;28;20175;-90
2021/08/13 02:09:17;;;;;;;22.58;12.23;;;20.80;70.70;;;;;;5055049;28;20173;-90
2021/08/13 02:11:44;;;;;;;21.77;12.65;;;20.70;70.80;;;;;;5054627;28;20185;-90
2021/08/13 02:14:10;;;;;;;21.20;12.50;;;20.70;70.80;;;;;;5054167;28;20204;-90
2021/08/13 02:16:37;;;;;;;13.23;10.55;;;20.70;70.70;;;;;;5057580;28;20326;-90
2021/08/13 02:19:12;;;;;;;17.40;10.75;;;20.70;70.60;;;;;;5054356;28;20702;-90
2021/08/13 02:21:41;;;;;;;13.60;10.60;;;20.70;70.40;;;;;;5057375;28;20214;-90
2021/08/13 02:24:07;;;;;;;18.83;11.20;;;20.70;70.00;;;;;;5054757;28;20201;-90
2021/08/13 02:26:32;;;;;;;14.80;10.97;;;20.70;69.70;;;;;;5067408;28;20546;-90
2021/08/13 02:29:01;;;;;;;15.53;9.90;;;20.80;69.30;;;;;;5056189;28;20415;-90
2021/08/13 02:31:27;;;;;;;15.90;10.57;;;20.80;69.10;;;;;;5053825;28;20323;-90
2021/08/13 02:33:53;;;;;;;17.03;10.93;;;21.00;68.70;;;;;;5058001;28;20248;-90
2021/08/13 02:36:28;;;;;;;15.80;11.40;;;21.00;68.40;;;;;;5054726;28;20918;-90
2021/08/13 02:39:22;;;;;;;18.13;10.95;;;21.10;68.10;;;;;;5057469;28;20252;-90
2021/08/13 02:41:50;;;;;;;17.27;10.90;;;21.10;68.10;;;;;;5056452;28;20189;-90
2021/08/13 02:44:19;;;;;;;22.90;12.10;;;21.00;68.40;;;;;;5055490;28;20640;-90
2021/08/13 02:46:59;;;;;;;16.25;11.10;;;21.00;68.50;;;;;;5061150;28;20186;-90
2021/08/13 02:49:27;;;;;;;16.23;11.43;;;21.10;68.40;;;;;;5053840;28;20650;-90
2021/08/13 02:51:57;;;;;;;14.65;11.23;;;21.10;68.20;;;;;;5053658;28;20191;-90
2021/08/13 02:54:27;;;;;;;26.35;11.27;;;21.00;68.40;;;;;;5054374;28;20181;-90
2021/08/13 02:56:58;;;;;;;16.60;10.93;;;21.00;68.70;;;;;;5065239;28;20264;-90
2021/08/13 02:59:30;;;;;;;18.25;12.15;;;20.90;69.00;;;;;;5054733;28;20201;-90
2021/08/13 03:01:58;;;;;;;28.52;12.55;;;20.60;69.40;;;;;;5053199;28;20217;-90
2021/08/13 03:04:25;;;;;;;16.42;10.30;;;20.60;69.80;;;;;;5054916;28;20263;-90
2021/08/13 03:06:51;;;;;;;16.75;11.45;;;20.70;70.40;;;;;;5053778;28;20181;-90
2021/08/13 03:09:18;;;;;;;20.48;13.63;;;20.70;69.50;;;;;;5052320;28;20188;-90
2021/08/13 03:11:46;;;;;;;21.52;12.02;;;20.80;69.50;;;;;;5053744;28;20315;-90
2021/08/13 03:14:13;;;;;;;20.40;12.18;;;20.80;69.40;;;;;;5054001;28;20173;-90
2021/08/13 03:16:40;;;;;;;18.95;11.80;;;20.80;69.20;;;;;;5055855;28;20262;-90
2021/08/13 03:19:07;;;;;;;21.65;12.70;;;20.80;69.10;;;;;;5054884;28;20177;-90
2021/08/13 03:21:33;;;;;;;21.33;11.23;;;20.60;69.20;;;;;;5064232;28;20259;-90
2021/08/13 03:24:00;;;;;;;20.35;10.75;;;20.60;69.90;;;;;;5056674;28;20636;-90
2021/08/13 03:26:26;;;;;;;16.27;10.38;;;20.50;69.10;;;;;;5056046;28;20180;-90
2021/08/13 03:28:53;;;;;;;17.48;11.13;;;20.40;69.30;;;;;;5056128;28;20192;-90
2021/08/13 03:31:39;;;;;;;16.98;11.40;;;20.30;69.40;;;;;;5054618;28;20185;-90
2021/08/13 03:34:07;;;;;;;18.42;11.07;;;20.40;69.60;;;;;;5054401;28;20271;-90
2021/08/13 03:36:34;;;;;;;19.40;10.80;;;20.50;69.40;;;;;;5056617;28;20260;-90
2021/08/13 03:39:01;;;;;;;17.58;11.25;;;20.30;69.40;;;;;;5057778;28;20173;-90
2021/08/13 03:41:27;;;;;;;17.27;11.60;;;20.30;69.50;;;;;;5053080;28;20268;-90
2021/08/13 03:43:53;;;;;;;17.15;11.38;;;20.20;69.30;;;;;;5054187;28;20363;-90
2021/08/13 03:46:19;;;;;;;19.03;11.13;;;20.10;69.10;;;;;;5053452;28;20657;-90
2021/08/13 03:48:44;;;;;;;22.10;11.63;;;20.10;69.00;;;;;;5053414;28;20223;-90
2021/08/13 03:51:10;;;;;;;15.43;10.50;;;20.20;68.70;;;;;;5052776;28;20247;-90
2021/08/13 03:53:36;;;;;;;14.63;9.97;;;20.10;68.40;;;;;;5052397;28;20197;-90
2021/08/13 03:56:02;;;;;;;18.17;10.53;;;20.10;68.20;;;;;;5052996;28;20173;-90
2021/08/13 03:58:27;;;;;;;15.40;10.03;;;20.10;68.00;;;;;;5053533;28;20172;-90
2021/08/13 04:00:53;;;;;;;15.77;10.60;;;20.10;67.80;;;;;;5055839;28;20442;-90
2021/08/13 04:03:19;;;;;;;13.97;10.33;;;20.10;67.90;;;;;;5061399;28;20213;-90
2021/08/13 04:05:44;;;;;;;14.07;10.00;;;20.00;67.70;;;;;;5053915;28;20259;-90
2021/08/13 04:08:10;;;;;;;14.27;9.67;;;20.00;67.60;;;;;;5055520;28;20181;-90
2021/08/13 04:10:36;;;;;;;15.63;10.10;;;20.00;67.60;;;;;;5052961;28;20177;-90
2021/08/13 04:13:02;;;;;;;12.57;9.03;;;19.90;67.60;;;;;;5052682;28;20209;-90
2021/08/13 04:15:29;;;;;;;14.90;8.53;;;19.90;67.70;;;;;;5053609;28;20187;-90
2021/08/13 04:17:55;;;;;;;14.55;9.70;;;19.90;67.80;;;;;;5067587;28;20177;-90
2021/08/13 04:20:21;;;;;;;15.18;9.23;;;19.80;67.70;;;;;;5059267;28;20188;-90
2021/08/13 04:22:47;;;;;;;11.82;9.38;;;19.80;67.70;;;;;;5054817;28;20245;-90
2021/08/13 04:25:13;;;;;;;13.27;9.20;;;19.80;67.70;;;;;;5052304;28;20268;-90
2021/08/13 04:27:39;;;;;;;15.23;8.43;;;19.80;67.60;;;;;;5052269;28;20420;-90
2021/08/13 04:30:06;;;;;;;11.50;8.20;;;19.80;67.50;;;;;;5052768;28;20412;-90
2021/08/13 04:32:31;;;;;;;14.10;8.20;;;19.80;67.40;;;;;;5052316;28;20561;-90
2021/08/13 04:34:58;;;;;;;13.20;9.10;;;19.80;67.10;;;;;;5052450;28;20181;-90
2021/08/13 04:37:24;;;;;;;16.23;7.82;;;19.80;67.00;;;;;;5052272;28;20419;-90
2021/08/13 04:39:50;;;;;;;12.93;7.47;;;19.80;66.90;;;;;;5051904;28;20196;-90
2021/08/13 04:42:15;;;;;;;8.83;6.47;;;19.80;66.70;;;;;;5051982;28;20217;-90
2021/08/13 04:44:41;;;;;;;13.57;6.60;;;19.80;66.50;;;;;;5052430;28;20183;-90
2021/08/13 04:47:07;;;;;;;10.53;7.57;;;19.80;66.30;;;;;;5052258;28;20181;-90
2021/08/13 04:49:33;;;;;;;14.60;7.40;;;19.80;66.20;;;;;;5051656;28;20443;-90
2021/08/13 04:51:59;;;;;;;10.67;6.90;;;19.90;66.20;;;;;;5052160;28;20229;-90
2021/08/13 04:54:25;;;;;;;8.48;6.00;;;19.90;65.90;;;;;;5052010;28;20268;-90
2021/08/13 04:56:50;;;;;;;13.63;8.53;;;19.90;65.60;;;;;;5054684;28;20229;-90
2021/08/13 04:59:16;;;;;;;11.73;6.37;;;19.90;65.50;;;;;;5054622;28;20185;-90
2021/08/13 05:01:42;;;;;;;11.63;6.33;;;19.90;65.30;;;;;;5052398;28;20206;-90
2021/08/13 05:04:08;;;;;;;19.90;7.37;;;19.80;65.00;;;;;;5051917;28;20291;-90
2021/08/13 05:06:34;;;;;;;11.90;7.30;;;19.90;65.10;;;;;;5051892;28;20232;-90
2021/08/13 05:08:59;;;;;;;10.80;7.40;;;19.90;65.10;;;;;;5056745;28;20178;-90
2021/08/13 05:11:25;;;;;;;12.70;6.80;;;19.90;65.00;;;;;;5052081;28;20595;-90
2021/08/13 05:13:51;;;;;;;9.97;7.10;;;20.00;64.70;;;;;;5058997;28;20197;-90
2021/08/13 05:16:16;;;;;;;9.23;5.83;;;20.00;64.80;;;;;;5053081;28;20212;-90
2021/08/13 05:18:42;;;;;;;8.20;6.87;;;20.00;64.80;;;;;;5052315;28;20629;-90
2021/08/13 05:21:08;;;;;;;11.83;7.23;;;20.10;64.60;;;;;;5052025;28;20288;-90
2021/08/13 05:23:33;;;;;;;12.03;6.10;;;20.10;64.40;;;;;;5051729;28;20271;-91
2021/08/13 05:26:00;;;;;;;9.83;7.50;;;20.10;64.10;;;;;;5052651;28;20551;-90
2021/08/13 05:28:26;;;;;;;13.73;7.38;;;20.10;64.10;;;;;;5051597;28;20213;-90
2021/08/13 05:30:52;;;;;;;8.15;6.00;;;20.20;64.10;;;;;;5053041;28;20205;-90
2021/08/13 05:33:18;;;;;;;10.38;7.22;;;20.20;64.00;;;;;;5054044;28;20208;-90
2021/08/13 05:35:43;;;;;;;11.70;7.70;;;20.30;64.00;;;;;;5055247;28;20267;-90
2021/08/13 05:38:09;;;;;;;13.80;8.50;;;20.30;64.70;;;;;;5054929;28;20212;-90
2021/08/13 05:40:36;;;;;;;12.83;8.10;;;20.40;63.90;;;;;;5055510;28;20181;-90
2021/08/13 05:43:03;;;;;;;15.93;10.02;;;20.30;63.90;;;;;;5055070;28;20473;-90
2021/08/13 05:45:28;;;;;;;15.35;9.10;;;20.30;64.00;;;;;;5055859;28;20620;-90
2021/08/13 05:47:54;;;;;;;15.37;8.07;;;20.30;64.10;;;;;;5055530;28;20181;-90
2021/08/13 05:50:20;;;;;;;13.80;8.33;;;20.30;64.10;;;;;;5055784;28;20201;-90
2021/08/13 05:52:46;;;;;;;12.00;8.10;;;20.40;64.10;;;;;;5055062;28;20443;-90
2021/08/13 05:55:12;;;;;;;15.47;7.67;;;20.50;64.20;;;;;;5055674;28;20239;-90
2021/08/13 05:57:38;;;;;;;13.00;9.13;;;20.60;64.10;;;;;;5055465;28;20181;-90
2021/08/13 06:00:06;;;;;;;17.03;8.40;;;20.60;64.00;;;;;;5055754;28;20192;-90
2021/08/13 06:02:31;;;;;;;14.80;8.57;;;20.80;63.90;;;;;;5055380;28;20463;-90
2021/08/13 06:04:57;;;;;;;13.90;8.50;;;20.90;63.80;;;;;;5055542;28;20614;-90
2021/08/13 06:07:24;;;;;;;13.27;9.65;;;20.90;63.60;;;;;;5058404;28;20184;-90
2021/08/13 06:09:50;;;;;;;16.95;10.10;;;21.00;63.50;;;;;;5067122;28;20652;-89
2021/08/13 06:12:15;;;;;;;14.20;8.90;;;21.20;63.30;;;;;;5060416;28;20197;-91
2021/08/13 06:14:41;;;;;;;21.17;9.43;;;21.30;63.20;;;;;;5059955;28;20442;-90
2021/08/13 06:17:08;;;;;;;14.63;10.10;;;21.50;62.90;;;;;;5055326;28;20236;-90
2021/08/13 06:19:33;;;;;;;20.57;9.60;;;21.60;62.40;;;;;;5056631;28;20231;-90
2021/08/13 06:22:00;;;;;;;13.27;10.40;;;21.60;62.40;;;;;;5055041;28;20476;-90
2021/08/13 06:24:26;;;;;;;21.57;12.97;;;21.60;62.50;;;;;;5055047;28;20549;-90
2021/08/13 06:26:53;;;;;;;17.60;10.17;;;21.50;62.70;;;;;;5057137;28;20883;-90
2021/08/13 06:29:21;;;;;;;18.23;11.93;;;21.50;63.00;;;;;;5055312;28;20423;-90
2021/08/13 06:31:48;;;;;;;17.53;12.47;;;21.50;63.00;;;;;;5055315;28;20431;-90
2021/08/13 06:34:17;;;;;;;21.23;12.23;;;21.50;63.20;;;;;;5059991;28;20439;-90
2021/08/13 06:36:44;;;;;;;15.83;11.67;;;21.50;63.10;;;;;;5056776;28;20496;-90
2021/08/13 06:39:09;;;;;;;19.03;12.63;;;21.60;63.20;;;;;;5057124;28;20426;-90
2021/08/13 06:41:35;;;;;;;20.23;13.23;;;21.70;63.20;;;;;;5057854;28;20926;-90
2021/08/13 06:44:01;;;;;;;20.40;12.40;;;21.50;63.30;;;;;;5058106;28;20419;-90
2021/08/13 06:46:27;;;;;;;21.63;12.40;;;21.50;63.50;;;;;;5058174;28;20630;-90
2021/08/13 06:48:53;;;;;;;16.63;10.97;;;21.70;63.40;;;;;;5057247;28;20181;-90
2021/08/13 06:51:19;;;;;;;18.97;13.23;;;21.70;63.20;;;;;;5056386;28;20432;-91
2021/08/13 06:53:45;;;;;;;26.77;13.50;;;21.80;62.90;;;;;;5057151;28;20201;-91
2021/08/13 06:56:11;;;;;;;21.67;12.17;;;21.90;63.00;;;;;;5056481;28;20412;-90
2021/08/13 06:58:37;;;;;;;18.60;11.90;;;22.10;62.30;;;;;;5057323;28;20426;-90
2021/08/13 07:01:02;;;;;;;22.20;12.20;;;22.30;62.00;;;;;;5056578;28;20475;-91
2021/08/13 07:03:28;;;;;;;16.67;11.97;;;22.50;61.80;;;;;;5056864;28;20220;-90
2021/08/13 07:05:54;;;;;;;22.70;12.70;;;22.80;61.40;;;;;;5066691;28;20195;-90
2021/08/13 07:08:20;;;;;;;20.50;14.60;;;22.80;60.60;;;;;;5060110;28;20436;-90
2021/08/13 07:10:46;;;;;;;20.60;12.93;;;23.10;59.80;;;;;;5056425;28;20185;-90
2021/08/13 07:13:11;;;;;;;23.27;12.90;;;22.90;59.10;;;;;;5056581;28;20219;-90
2021/08/13 07:15:37;;;;;;;22.77;14.27;;;23.10;59.10;;;;;;5056440;28;20185;-90
2021/08/13 07:18:03;;;;;;;24.53;13.23;;;22.90;59.10;;;;;;5058257;28;20181;-90
2021/08/13 07:20:29;;;;;;;20.30;12.70;;;22.80;59.40;;;;;;5057776;28;20286;-90
2021/08/13 07:22:55;;;;;;;20.53;12.10;;;22.90;59.50;;;;;;5055663;28;20467;-90
2021/08/13 07:25:21;;;;;;;19.93;11.70;;;22.80;59.10;;;;;;5057159;28;20416;-90
2021/08/13 07:27:47;;;;;;;17.70;10.13;;;22.70;58.90;;;;;;5056100;28;20180;-91
2021/08/13 07:30:13;;;;;;;19.10;13.47;;;22.30;58.50;;;;;;5056757;28;20422;-90
2021/08/13 07:32:39;;;;;;;16.13;11.60;;;22.20;59.00;;;;;;5056875;28;20209;-90
2021/08/13 07:35:05;;;;;;;22.43;11.00;;;22.00;59.10;;;;;;5058813;28;20430;-90
2021/08/13 07:37:31;;;;;;;20.53;11.67;;;22.00;59.60;;;;;;5058071;28;20188;-90
2021/08/13 07:39:56;;;;;;;14.37;10.77;;;22.00;60.10;;;;;;5058406;28;20420;-90
2021/08/13 07:42:26;;;;;;;17.37;11.33;;;22.10;60.50;;;;;;5057710;28;20219;-90
2021/08/13 07:44:52;;;;;;;23.40;10.10;;;22.20;60.40;;;;;;5057724;28;20181;-90
2021/08/13 07:47:18;;;;;;;16.97;11.30;;;22.20;59.70;;;;;;5059789;28;20478;-90
2021/08/13 07:49:44;;;;;;;23.03;10.27;;;22.30;59.00;;;;;;5059017;28;20407;-90
2021/08/13 07:52:09;;;;;;;21.60;11.53;;;22.40;59.20;;;;;;5057673;28;20201;-91
2021/08/13 07:54:36;;;;;;;16.83;11.40;;;22.50;58.60;;;;;;5056172;28;20184;-90
2021/08/13 07:57:02;;;;;;;14.57;9.33;;;22.50;57.60;;;;;;5058604;28;20177;-91
2021/08/13 07:59:27;;;;;;;15.87;9.90;;;22.60;57.00;;;;;;5057996;28;21398;-90
2021/08/13 08:01:53;;;;;;;15.43;9.30;;;22.60;56.60;;;;;;5063036;28;20471;-90
2021/08/13 08:04:19;;;;;;;16.90;9.50;;;22.70;56.70;;;;;;5059094;28;20189;-90
2021/08/13 08:06:45;;;;;;;21.50;9.23;;;23.00;56.30;;;;;;5053827;28;20193;-90
2021/08/13 08:09:11;;;;;;;14.17;8.03;;;23.10;55.60;;;;;;5054087;28;20177;-91
2021/08/13 08:11:37;;;;;;;16.77;9.20;;;23.50;54.80;;;;;;5054342;28;20180;-90
2021/08/13 08:14:03;;;;;;;12.30;8.80;;;23.70;54.00;;;;;;5056036;28;20907;-90
2021/08/13 08:16:28;;;;;;;11.10;8.43;;;23.90;53.10;;;;;;5073130;28;20489;-90
2021/08/13 08:18:54;;;;;;;14.23;8.17;;;24.00;52.30;;;;;;5071948;28;20177;-90
2021/08/13 08:21:20;;;;;;;10.30;7.33;;;23.90;51.30;;;;;;5063393;28;20571;-91
2021/08/13 08:23:46;;;;;;;11.70;7.67;;;23.80;50.70;;;;;;5056252;28;20274;-90
2021/08/13 08:26:11;;;;;;;14.53;7.53;;;23.70;50.80;;;;;;5057164;28;20173;-90
2021/08/13 08:28:42;;;;;;;15.23;7.73;;;23.70;51.50;;;;;;5055447;28;20173;-91
2021/08/13 08:31:08;;;;;;;12.07;7.73;;;23.70;51.80;;;;;;5054647;28;20234;-90
2021/08/13 08:33:34;;;;;;;16.90;7.50;;;23.80;52.00;;;;;;5054814;28;20458;-90
2021/08/13 08:36:00;;;;;;;16.47;8.27;;;23.80;51.90;;;;;;5054626;28;20507;-91
2021/08/13 08:38:26;;;;;;;9.37;5.97;;;23.70;51.00;;;;;;5055682;28;20166;-90
2021/08/13 08:40:52;;;;;;;9.87;6.70;;;23.70;50.90;;;;;;5055743;28;20461;-90
2021/08/13 08:43:18;;;;;;;10.83;6.43;;;23.40;50.80;;;;;;5056057;28;20213;-90
2021/08/13 08:45:44;;;;;;;12.37;6.40;;;23.60;51.00;;;;;;5056471;28;20413;-90
2021/08/13 08:48:11;;;;;;;15.70;7.00;;;23.60;51.50;;;;;;5056152;28;20416;-90
2021/08/13 08:50:40;;;;;;;17.50;6.70;;;23.60;51.20;;;;;;5056097;28;20416;-90
2021/08/13 08:53:15;;;;;;;13.73;6.73;;;23.50;51.30;;;;;;5055659;28;20446;-90
2021/08/13 08:55:42;;;;;;;17.23;7.67;;;23.40;51.80;;;;;;5056187;28;20475;-90
2021/08/13 08:58:07;;;;;;;18.97;7.53;;;23.60;51.90;;;;;;5059276;28;20423;-91
2021/08/13 09:00:34;;;;;;;13.87;6.30;;;23.80;51.60;;;;;;5058968;28;20800;-91
2021/08/13 09:03:00;;;;;;;11.30;6.70;;;23.90;51.20;;;;;;5053248;28;20970;-91
2021/08/13 09:05:26;;;;;;;9.90;6.90;;;23.90;51.00;;;;;;5054385;28;20470;-90
2021/08/13 09:07:52;;;;;;;9.63;6.87;;;23.90;50.50;;;;;;5055872;28;20828;-91
2021/08/13 09:10:20;;;;;;;9.70;6.20;;;23.90;50.20;;;;;;5056573;28;20216;-91
2021/08/13 09:12:46;;;;;;;16.10;7.00;;;24.00;50.30;;;;;;5056911;28;20601;-91
2021/08/13 09:15:30;;;;;;;15.60;8.37;;;23.90;49.30;;;;;;5056417;28;20416;-90
2021/08/13 09:18:20;;;;;;;16.17;7.70;;;23.80;50.00;;;;;;5056073;28;20188;-91
2021/08/13 09:21:01;;;;;;;8.87;6.20;;;23.90;50.60;;;;;;5056254;28;20906;-91
2021/08/13 09:23:30;;;;;;;10.53;6.10;;;24.00;51.30;;;;;;5055737;28;20499;-91
2021/08/13 09:26:18;;;;;;;7.80;5.80;;;24.30;51.30;;;;;;5056182;28;20489;-91
2021/08/13 09:28:53;;;;;;;15.73;6.97;;;24.50;50.30;;;;;;5057752;28;20506;-90
2021/08/13 09:31:29;;;;;;;8.37;6.10;;;24.50;49.90;;;;;;5061612;28;20425;-91
2021/08/13 09:34:10;;;;;;;16.57;7.00;;;24.40;49.60;;;;;;5056814;28;20469;-91
2021/08/13 09:36:56;;;;;;;11.87;7.40;;;24.40;50.00;;;;;;5056102;28;20411;-91
2021/08/13 09:39:27;;;;;;;27.03;8.17;;;24.60;50.40;;;;;;5056368;28;20419;-90
2021/08/13 09:42:07;;;;;;;14.47;7.23;;;25.00;49.80;;;;;;5055966;28;20836;-90
2021/08/13 09:44:35;;;;;;;14.37;7.40;;;25.00;48.90;;;;;;5056580;28;20454;-91
2021/08/13 09:47:03;;;;;;;17.03;8.37;;;24.80;48.60;;;;;;5056816;28;20415;-90
2021/08/13 09:49:30;;;;;;;10.13;6.40;;;24.90;48.90;;;;;;5056738;28;20503;-90
2021/08/13 09:51:57;;;;;;;10.20;6.10;;;24.60;48.90;;;;;;5055663;28;20988;-91
2021/08/13 09:54:27;;;;;;;11.43;5.47;;;24.70;49.00;;;;;;5065652;28;20506;-90
2021/08/13 09:56:53;;;;;;;10.57;6.37;;;25.00;49.00;;;;;;5060168;28;20436;-90
2021/08/13 09:59:20;;;;;;;9.00;5.60;;;25.30;48.80;;;;;;5056534;28;20427;-91
2021/08/13 10:01:47;;;;;;;9.60;5.83;;;25.80;47.60;;;;;;5055311;28;20187;-90
2021/08/13 10:04:15;;;;;;;11.37;6.90;;;25.80;46.80;;;;;;5056770;28;20405;-90
2021/08/13 10:06:42;;;;;;;12.30;6.50;;;25.60;46.90;;;;;;5055999;28;20412;-90
2021/08/13 10:09:26;;;;;;;11.20;7.30;;;25.70;47.40;;;;;;5057003;28;20442;-90
2021/08/13 10:12:00;;;;;;;14.67;7.53;;;25.90;47.00;;;;;;5055489;28;20427;-90
2021/08/13 10:14:34;;;;;;;12.97;6.73;;;25.70;47.00;;;;;;5055388;28;20477;-91
2021/08/13 10:17:20;;;;;;;16.63;8.10;;;25.40;47.10;;;;;;5055867;28;20454;-91
2021/08/13 10:19:50;;;;;;;13.17;6.67;;;25.20;47.90;;;;;;5055757;28;20477;-91
2021/08/13 10:22:18;;;;;;;9.80;6.80;;;25.40;47.80;;;;;;5055564;28;20464;-91
2021/08/13 10:24:45;;;;;;;17.63;8.50;;;25.20;48.00;;;;;;5054967;28;20775;-91
2021/08/13 10:27:13;;;;;;;8.73;6.70;;;24.80;48.70;;;;;;5055641;28;20422;-91
2021/08/13 10:29:41;;;;;;;9.13;6.23;;;24.80;49.70;;;;;;5055488;28;20879;-91
2021/08/13 10:32:07;;;;;;;6.83;5.67;;;25.00;49.10;;;;;;5054642;28;20535;-90
2021/08/13 10:34:34;;;;;;;14.07;8.33;;;25.30;48.90;;;;;;5058323;28;20991;-91
2021/08/13 10:37:02;;;;;;;9.20;6.20;;;25.40;48.50;;;;;;5061103;28;20533;-92
2021/08/13 10:39:31;;;;;;;9.20;6.23;;;25.60;48.10;;;;;;5056427;28;20474;-91
2021/08/13 10:42:03;;;;;;;9.60;7.37;;;25.70;47.60;;;;;;5055683;28;20529;-91
2021/08/13 10:44:33;;;;;;;9.90;7.40;;;25.60;47.50;;;;;;5056334;28;20419;-91
2021/08/13 10:47:08;;;;;;;9.57;5.70;;;25.50;48.50;;;;;;5055271;28;20469;-90
2021/08/13 10:49:37;;;;;;;7.43;6.20;;;25.90;48.20;;;;;;5056410;28;20768;-90
2021/08/13 10:52:05;;;;;;;11.43;6.43;;;26.20;47.80;;;;;;5067248;28;20494;-91
2021/08/13 10:54:42;;;;;;;11.40;7.80;;;26.40;47.00;;;;;;5055913;28;20419;-91
2021/08/13 10:57:09;;;;;;;9.70;6.10;;;26.30;46.80;;;;;;5055666;28;20786;-91
2021/08/13 10:59:41;;;;;;;13.37;7.40;;;26.40;47.00;;;;;;5055721;28;20788;-91
2021/08/13 11:02:13;;;;;;;12.47;7.33;;;26.60;45.50;;;;;;5058721;28;20480;-91
2021/08/13 11:04:44;;;;;;;11.20;6.23;;;26.60;45.80;;;;;;5071165;28;20405;-90
2021/08/13 11:07:11;;;;;;;13.27;6.30;;;26.60;45.90;;;;;;5061616;28;20421;-91
2021/08/13 11:09:38;;;;;;;7.57;5.23;;;26.60;45.50;;;;;;5057514;28;20482;-91
2021/08/13 11:12:13;;;;;;;12.37;6.13;;;26.60;44.40;;;;;;5057928;28;20439;-91
2021/08/13 11:14:55;;;;;;;14.50;5.93;;;26.40;43.20;;;;;;5057350;28;20439;-91
2021/08/13 11:17:53;;;;;;;11.30;5.40;;;26.10;43.90;;;;;;5055800;28;20448;-91
2021/08/13 11:20:20;;;;;;;8.97;6.20;;;25.90;44.00;;;;;;5024187;28;20503;-91
2021/08/13 11:22:59;;;;;;;18.90;7.00;;;25.60;45.20;;;;;;5058093;28;20518;-91
2021/08/13 11:25:45;;;;;;;9.83;5.40;;;25.10;46.70;;;;;;5058314;28;20887;-91
2021/08/13 11:28:21;;;;;;;9.80;6.60;;;24.90;47.80;;;;;;5041271;28;20447;-91
2021/08/13 11:30:48;;;;;;;8.57;5.70;;;24.70;47.90;;;;;;5055371;28;20415;-91
2021/08/13 11:33:26;;;;;;;7.00;5.87;;;25.00;48.00;;;;;;5054922;28;20435;-91
2021/08/13 11:35:56;;;;;;;10.10;6.10;;;25.30;46.90;;;;;;5055923;28;20514;-91
2021/08/13 11:38:44;;;;;;;11.77;6.47;;;25.40;46.50;;;;;;5055477;28;20459;-91
2021/08/13 11:41:22;;;;;;;12.57;6.30;;;25.10;46.70;;;;;;5059547;28;20455;-91
2021/08/13 11:43:56;;;;;;;13.33;6.37;;;25.10;46.90;;;;;;5055823;28;20467;-91
2021/08/13 11:46:42;;;;;;;8.30;6.00;;;25.20;47.20;;;;;;5060922;28;20424;-88
2021/08/13 11:49:08;;;;;;;11.07;6.03;;;25.40;46.60;;;;;;5057991;28;20431;-91
2021/08/13 11:51:36;;;;;;;11.97;6.77;;;25.10;46.70;;;;;;5054323;28;20483;-91
2021/08/13 11:54:04;;;;;;;14.20;6.57;;;24.80;47.80;;;;;;5054451;28;20440;-91
2021/08/13 11:56:32;;;;;;;11.17;6.30;;;25.10;48.10;;;;;;5054666;28;20554;-91
2021/08/13 11:58:58;;;;;;;14.83;6.67;;;25.20;47.70;;;;;;5054280;28;20499;-91
2021/08/13 12:01:24;;;;;;;9.20;6.27;;;24.90;48.20;;;;;;5055926;28;20797;-91
2021/08/13 12:03:52;;;;;;;15.10;7.30;;;25.20;48.40;;;;;;5054087;28;20467;-91
2021/08/13 12:06:17;;;;;;;13.43;7.03;;;25.20;48.00;;;;;;5054633;28;20503;-91
2021/08/13 12:08:45;;;;;;;12.27;5.10;;;25.30;47.30;;;;;;5054600;28;20925;-91
2021/08/13 12:11:10;;;;;;;8.87;5.53;;;25.60;47.80;;;;;;5054268;28;20170;-91
2021/08/13 12:13:36;;;;;;;14.57;5.47;;;26.00;46.20;;;;;;5054184;28;20963;-91
2021/08/13 12:16:05;;;;;;;34.57;6.37;;;26.40;45.10;;;;;;5053728;28;20193;-91
2021/08/13 12:18:33;;;;;;;11.50;5.57;;;26.30;44.50;;;;;;5053855;28;20179;-91
2021/08/13 12:21:08;;;;;;;19.13;6.00;;;26.30;43.90;;;;;;5055433;28;20484;-91
2021/08/13 12:23:33;;;;;;;13.97;6.87;;;26.30;43.40;;;;;;5067374;28;20456;-91
2021/08/13 12:26:03;;;;;;;22.70;7.07;;;26.60;43.30;;;;;;5065135;28;20939;-91
2021/08/13 12:28:31;;;;;;;17.00;5.77;;;26.50;43.60;;;;;;5064474;28;20497;-91
2021/08/13 12:31:08;;;;;;;9.80;5.30;;;26.60;42.30;;;;;;5064462;28;20413;-91
2021/08/13 12:33:34;;;;;;;8.30;4.50;;;26.50;41.60;;;;;;5063320;28;20445;-90
2021/08/13 12:36:00;;;;;;;11.43;4.93;;;26.50;42.00;;;;;;5064109;28;20470;-91
2021/08/13 12:38:33;;;;;;;46.60;9.00;;;26.70;41.10;;;;;;5063584;28;20614;-91